sensor_id;sensor_type;location;lat;lon;timestamp;pressure;altitude;pressure_sealevel;temperature;humidity
49835;BME280;35729;52.090;13.162;2023-04-16T00:01:41;100834.97;;;8.96;100.00
49835;BME280;35729;52.090;13.162;2023-04-16T00:04:09;100833.22;;;8.95;100.00
49835;BME280;35729;52.090;13.162;2023-04-16T00:06:37;100828.91;;;8.93;100.00
49835;BME280;35729;52.090;13.162;2023-04-16T00:09:09;100837.66;;;8.90;100.00
49835;BME280;35729;52.090;13.162;2023-04-16T00:11:37;100845.56;;;8.87;100.00
49835;BME280;35729;52.090;13.162;2023-04-16T00:14:06;100836.88;;;8.84;100.00
49835;BME280;35729;52.090;13.162;2023-04-16T00:16:34;100843.88;;;8.82;100.00
49835;BME280;35729;52.090;13.162;2023-04-16T00:19:03;100840.44;;;8.78;100.00
49835;BME280;35729;52.090;13.162;2023-04-16T00:21:31;100846.56;;;8.75;100.00
49835;BME280;35729;52.090;13.162;2023-04-16T00:24:00;100851.84;;;8.72;100.00
49835;BME280;35729;52.090;13.162;2023-04-16T00:26:31;100847.53;;;8.70;100.00
49835;BME280;35729;52.090;13.162;2023-04-16T00:28:59;100847.56;;;8.68;100.00
49835;BME280;35729;52.090;13.162;2023-04-16T00:31:29;100852.78;;;8.67;100.00
49835;BME280;35729;52.090;13.162;2023-04-16T00:33:58;100850.19;;;8.65;100.00
49835;BME280;35729;52.090;13.162;2023-04-16T00:36:27;100860.69;;;8.63;100.00
49835;BME280;35729;52.090;13.162;2023-04-16T00:38:55;100860.69;;;8.63;100.00
49835;BME280;35729;52.090;13.162;2023-04-16T00:41:24;100864.16;;;8.62;100.00
49835;BME280;35729;52.090;13.162;2023-04-16T00:43:56;100864.16;;;8.62;100.00
49835;BME280;35729;52.090;13.162;2023-04-16T00:46:24;100859.78;;;8.63;100.00
49835;BME280;35729;52.090;13.162;2023-04-16T00:48:54;100864.16;;;8.64;100.00
49835;BME280;35729;52.090;13.162;2023-04-16T00:51:23;100862.41;;;8.64;100.00
49835;BME280;35729;52.090;13.162;2023-04-16T00:53:52;100870.25;;;8.64;100.00
49835;BME280;35729;52.090;13.162;2023-04-16T00:56:20;100865.03;;;8.64;100.00
49835;BME280;35729;52.090;13.162;2023-04-16T00:58:50;100869.34;;;8.66;100.00
49835;BME280;35729;52.090;13.162;2023-04-16T01:01:21;100867.66;;;8.64;100.00
49835;BME280;35729;52.090;13.162;2023-04-16T01:03:49;100872.88;;;8.64;100.00
49835;BME280;35729;52.090;13.162;2023-04-16T01:06:18;100870.25;;;8.64;100.00
49835;BME280;35729;52.090;13.162;2023-04-16T01:08:47;100873.75;;;8.63;100.00
49835;BME280;35729;52.090;13.162;2023-04-16T01:11:15;100872.00;;;8.62;100.00
49835;BME280;35729;52.090;13.162;2023-04-16T01:13:44;100874.63;;;8.62;100.00
49835;BME280;35729;52.090;13.162;2023-04-16T01:16:12;100880.72;;;8.63;100.00
49835;BME280;35729;52.090;13.162;2023-04-16T01:18:43;100878.97;;;8.63;100.00
49835;BME280;35729;52.090;13.162;2023-04-16T01:21:14;100881.63;;;8.62;100.00
49835;BME280;35729;52.090;13.162;2023-04-16T01:23:43;100879.88;;;8.62;100.00
49835;BME280;35729;52.090;13.162;2023-04-16T01:26:11;100879.88;;;8.61;100.00
49835;BME280;35729;52.090;13.162;2023-04-16T01:28:40;100885.13;;;8.61;100.00
49835;BME280;35729;52.090;13.162;2023-04-16T01:31:08;100886.00;;;8.60;100.00
49835;BME280;35729;52.090;13.162;2023-04-16T01:33:37;100878.16;;;8.58;100.00
49835;BME280;35729;52.090;13.162;2023-04-16T01:36:06;100884.25;;;8.59;100.00
49835;BME280;35729;52.090;13.162;2023-04-16T01:38:37;100886.00;;;8.60;100.00
49835;BME280;35729;52.090;13.162;2023-04-16T01:41:05;100882.53;;;8.59;100.00
49835;BME280;35729;52.090;13.162;2023-04-16T01:43:34;100886.03;;;8.58;100.00
49835;BME280;35729;52.090;13.162;2023-04-16T01:46:13;100879.91;;;8.58;100.00
49835;BME280;35729;52.090;13.162;2023-04-16T01:48:42;100882.53;;;8.56;100.00
49835;BME280;35729;52.090;13.162;2023-04-16T01:51:10;100894.75;;;8.56;100.00
49835;BME280;35729;52.090;13.162;2023-04-16T01:53:41;100895.66;;;8.55;100.00
49835;BME280;35729;52.090;13.162;2023-04-16T01:56:10;100893.06;;;8.53;100.00
49835;BME280;35729;52.090;13.162;2023-04-16T01:58:38;100893.06;;;8.50;100.00
49835;BME280;35729;52.090;13.162;2023-04-16T02:01:07;100904.38;;;8.52;100.00
49835;BME280;35729;52.090;13.162;2023-04-16T02:03:35;100905.25;;;8.51;100.00
49835;BME280;35729;52.090;13.162;2023-04-16T02:06:04;100908.75;;;8.50;100.00
49835;BME280;35729;52.090;13.162;2023-04-16T02:08:33;100902.69;;;8.50;100.00
49835;BME280;35729;52.090;13.162;2023-04-16T02:11:04;100909.63;;;8.52;100.00
49835;BME280;35729;52.090;13.162;2023-04-16T02:13:33;100912.22;;;8.54;100.00
49835;BME280;35729;52.090;13.162;2023-04-16T02:16:01;100920.06;;;8.54;100.00
49835;BME280;35729;52.090;13.162;2023-04-16T02:18:30;100923.50;;;8.57;100.00
49835;BME280;35729;52.090;13.162;2023-04-16T02:20:58;100921.78;;;8.56;100.00
49835;BME280;35729;52.090;13.162;2023-04-16T02:23:27;100926.13;;;8.57;100.00
49835;BME280;35729;52.090;13.162;2023-04-16T02:26:08;100923.50;;;8.57;100.00
49835;BME280;35729;52.090;13.162;2023-04-16T02:28:38;100927.88;;;8.58;100.00
49835;BME280;35729;52.090;13.162;2023-04-16T02:31:06;100921.75;;;8.58;100.00
49835;BME280;35729;52.090;13.162;2023-04-16T02:33:34;100921.75;;;8.59;100.00
49835;BME280;35729;52.090;13.162;2023-04-16T02:36:04;100922.59;;;8.60;100.00
49835;BME280;35729;52.090;13.162;2023-04-16T02:38:32;100920.00;;;8.60;100.00
49835;BME280;35729;52.090;13.162;2023-04-16T02:41:01;100923.47;;;8.60;100.00
49835;BME280;35729;52.090;13.162;2023-04-16T02:43:33;100928.69;;;8.60;100.00
49835;BME280;35729;52.090;13.162;2023-04-16T02:46:01;100928.69;;;8.62;100.00
49835;BME280;35729;52.090;13.162;2023-04-16T02:48:30;100938.28;;;8.61;100.00
49835;BME280;35729;52.090;13.162;2023-04-16T02:50:58;100933.03;;;8.63;100.00
49835;BME280;35729;52.090;13.162;2023-04-16T02:53:27;100926.94;;;8.62;100.00
49835;BME280;35729;52.090;13.162;2023-04-16T02:55:56;100926.06;;;8.63;100.00
49835;BME280;35729;52.090;13.162;2023-04-16T02:58:25;100932.16;;;8.64;100.00
49835;BME280;35729;52.090;13.162;2023-04-16T03:00:56;100928.66;;;8.65;100.00
49835;BME280;35729;52.090;13.162;2023-04-16T03:03:25;100931.28;;;8.65;100.00
49835;BME280;35729;52.090;13.162;2023-04-16T03:05:56;100935.66;;;8.64;100.00
49835;BME280;35729;52.090;13.162;2023-04-16T03:08:25;100935.63;;;8.63;100.00
49835;BME280;35729;52.090;13.162;2023-04-16T03:10:53;100937.41;;;8.62;100.00
49835;BME280;35729;52.090;13.162;2023-04-16T03:13:22;100944.41;;;8.62;100.00
49835;BME280;35729;52.090;13.162;2023-04-16T03:15:50;100936.53;;;8.60;100.00
49835;BME280;35729;52.090;13.162;2023-04-16T03:18:21;100944.38;;;8.60;100.00
49835;BME280;35729;52.090;13.162;2023-04-16T03:20:50;100944.38;;;8.60;100.00
49835;BME280;35729;52.090;13.162;2023-04-16T03:23:19;100947.00;;;8.60;100.00
49835;BME280;35729;52.090;13.162;2023-04-16T03:25:47;100948.78;;;8.58;100.00
49835;BME280;35729;52.090;13.162;2023-04-16T03:28:16;100952.22;;;8.60;100.00
49835;BME280;35729;52.090;13.162;2023-04-16T03:30:49;100951.38;;;8.60;100.00
49835;BME280;35729;52.090;13.162;2023-04-16T03:33:18;100953.13;;;8.59;100.00
49835;BME280;35729;52.090;13.162;2023-04-16T03:35:53;100952.22;;;8.60;100.00
49835;BME280;35729;52.090;13.162;2023-04-16T03:38:22;100953.13;;;8.59;100.00
49835;BME280;35729;52.090;13.162;2023-04-16T03:40:51;100952.25;;;8.59;100.00
49835;BME280;35729;52.090;13.162;2023-04-16T03:43:19;100950.50;;;8.58;100.00
49835;BME280;35729;52.090;13.162;2023-04-16T03:45:47;100958.38;;;8.59;100.00
49835;BME280;35729;52.090;13.162;2023-04-16T03:48:16;100960.97;;;8.61;100.00
49835;BME280;35729;52.090;13.162;2023-04-16T03:50:45;100966.22;;;8.59;100.00
49835;BME280;35729;52.090;13.162;2023-04-16T03:53:23;100961.84;;;8.60;100.00
49835;BME280;35729;52.090;13.162;2023-04-16T03:55:52;100961.81;;;8.61;100.00
49835;BME280;35729;52.090;13.162;2023-04-16T03:58:20;100959.19;;;8.61;100.00
49835;BME280;35729;52.090;13.162;2023-04-16T04:00:50;100966.16;;;8.62;100.00
49835;BME280;35729;52.090;13.162;2023-04-16T04:03:19;100971.41;;;8.62;100.00
49835;BME280;35729;52.090;13.162;2023-04-16T04:05:48;100968.75;;;8.64;100.00
49835;BME280;35729;52.090;13.162;2023-04-16T04:08:16;100979.22;;;8.64;100.00
49835;BME280;35729;52.090;13.162;2023-04-16T04:10:47;100980.13;;;8.64;100.00
49835;BME280;35729;52.090;13.162;2023-04-16T04:13:16;100985.34;;;8.64;100.00
49835;BME280;35729;52.090;13.162;2023-04-16T04:15:44;100990.56;;;8.64;100.00
49835;BME280;35729;52.090;13.162;2023-04-16T04:18:19;100991.44;;;8.65;100.00
49835;BME280;35729;52.090;13.162;2023-04-16T04:20:47;100996.66;;;8.65;100.00
49835;BME280;35729;52.090;13.162;2023-04-16T04:23:15;100994.91;;;8.64;100.00
49835;BME280;35729;52.090;13.162;2023-04-16T04:25:46;100999.28;;;8.63;100.00
49835;BME280;35729;52.090;13.162;2023-04-16T04:28:15;101001.91;;;8.63;100.00
49835;BME280;35729;52.090;13.162;2023-04-16T04:30:43;101006.28;;;8.64;100.00
49835;BME280;35729;52.090;13.162;2023-04-16T04:33:12;101005.38;;;8.64;100.00
49835;BME280;35729;52.090;13.162;2023-04-16T04:35:40;101005.38;;;8.64;100.00
49835;BME280;35729;52.090;13.162;2023-04-16T04:38:08;101009.75;;;8.63;100.00
49835;BME280;35729;52.090;13.162;2023-04-16T04:40:37;101016.72;;;8.64;100.00
49835;BME280;35729;52.090;13.162;2023-04-16T04:43:08;101008.88;;;8.63;100.00
49835;BME280;35729;52.090;13.162;2023-04-16T04:45:36;101012.41;;;8.62;100.00
49835;BME280;35729;52.090;13.162;2023-04-16T04:48:05;101013.28;;;8.61;100.00
49835;BME280;35729;52.090;13.162;2023-04-16T04:50:33;101015.88;;;8.61;100.00
49835;BME280;35729;52.090;13.162;2023-04-16T04:53:02;101025.47;;;8.60;100.00
49835;BME280;35729;52.090;13.162;2023-04-16T04:55:34;101020.25;;;8.59;100.00
49835;BME280;35729;52.090;13.162;2023-04-16T04:58:03;101021.13;;;8.58;100.00
49835;BME280;35729;52.090;13.162;2023-04-16T05:00:34;101031.59;;;8.58;100.00
49835;BME280;35729;52.090;13.162;2023-04-16T05:03:05;101024.66;;;8.57;100.00
49835;BME280;35729;52.090;13.162;2023-04-16T05:05:33;101031.59;;;8.58;100.00
49835;BME280;35729;52.090;13.162;2023-04-16T05:08:02;101031.63;;;8.56;100.00
49835;BME280;35729;52.090;13.162;2023-04-16T05:10:30;101033.38;;;8.56;100.00
49835;BME280;35729;52.090;13.162;2023-04-16T05:12:59;101030.75;;;8.54;100.00
49835;BME280;35729;52.090;13.162;2023-04-16T05:15:27;101039.50;;;8.52;100.00
49835;BME280;35729;52.090;13.162;2023-04-16T05:17:58;101034.28;;;8.50;100.00
49835;BME280;35729;52.090;13.162;2023-04-16T05:20:27;101043.88;;;8.50;100.00
49835;BME280;35729;52.090;13.162;2023-04-16T05:22:55;101043.91;;;8.48;100.00
49835;BME280;35729;52.090;13.162;2023-04-16T05:25:24;101041.28;;;8.46;100.00
49835;BME280;35729;52.090;13.162;2023-04-16T05:27:52;101050.00;;;8.47;100.00
49835;BME280;35729;52.090;13.162;2023-04-16T05:30:20;101047.38;;;8.44;100.00
49835;BME280;35729;52.090;13.162;2023-04-16T05:32:49;101050.88;;;8.43;100.00
49835;BME280;35729;52.090;13.162;2023-04-16T05:35:20;101049.97;;;8.44;100.00
49835;BME280;35729;52.090;13.162;2023-04-16T05:37:49;101049.97;;;8.44;100.00
49835;BME280;35729;52.090;13.162;2023-04-16T05:40:17;101048.25;;;8.44;100.00
49835;BME280;35729;52.090;13.162;2023-04-16T05:42:45;101058.72;;;8.43;100.00
49835;BME280;35729;52.090;13.162;2023-04-16T05:45:14;101056.13;;;8.43;100.00
49835;BME280;35729;52.090;13.162;2023-04-16T05:47:43;101059.59;;;8.43;100.00
49835;BME280;35729;52.090;13.162;2023-04-16T05:50:11;101060.44;;;8.44;100.00
49835;BME280;35729;52.090;13.162;2023-04-16T05:52:42;101063.94;;;8.44;100.00
49835;BME280;35729;52.090;13.162;2023-04-16T05:55:11;101066.56;;;8.43;100.00
49835;BME280;35729;52.090;13.162;2023-04-16T05:57:39;101067.44;;;8.42;100.00
49835;BME280;35729;52.090;13.162;2023-04-16T06:00:08;101065.72;;;8.39;100.00
49835;BME280;35729;52.090;13.162;2023-04-16T06:02:37;101078.75;;;8.42;100.00
49835;BME280;35729;52.090;13.162;2023-04-16T06:05:06;101079.63;;;8.41;100.00
49835;BME280;35729;52.090;13.162;2023-04-16T06:07:34;101085.75;;;8.39;100.00
49835;BME280;35729;52.090;13.162;2023-04-16T06:10:06;101084.03;;;8.39;100.00
49835;BME280;35729;52.090;13.162;2023-04-16T06:12:34;101086.66;;;8.39;100.00
49835;BME280;35729;52.090;13.162;2023-04-16T06:15:04;101092.75;;;8.38;100.00
49835;BME280;35729;52.090;13.162;2023-04-16T06:17:33;101104.94;;;8.38;100.00
49835;BME280;35729;52.090;13.162;2023-04-16T06:20:01;101092.75;;;8.37;100.00
49835;BME280;35729;52.090;13.162;2023-04-16T06:22:29;101093.66;;;8.34;100.00
49835;BME280;35729;52.090;13.162;2023-04-16T06:24:58;101101.47;;;8.32;100.00
49835;BME280;35729;52.090;13.162;2023-04-16T06:27:29;101102.38;;;8.31;100.00
49835;BME280;35729;52.090;13.162;2023-04-16T06:29:58;101102.38;;;8.31;100.00
49835;BME280;35729;52.090;13.162;2023-04-16T06:32:26;101100.63;;;8.32;100.00
49835;BME280;35729;52.090;13.162;2023-04-16T06:34:55;101104.97;;;8.33;100.00
49835;BME280;35729;52.090;13.162;2023-04-16T06:37:24;101099.78;;;8.31;100.00
49835;BME280;35729;52.090;13.162;2023-04-16T06:39:52;101100.59;;;8.34;100.00
49835;BME280;35729;52.090;13.162;2023-04-16T06:42:20;101102.38;;;8.33;100.00
49835;BME280;35729;52.090;13.162;2023-04-16T06:44:51;101105.84;;;8.34;100.00
49835;BME280;35729;52.090;13.162;2023-04-16T06:47:20;101110.19;;;8.35;100.00
49835;BME280;35729;52.090;13.162;2023-04-16T06:49:48;101106.72;;;8.36;100.00
49835;BME280;35729;52.090;13.162;2023-04-16T06:52:17;101116.28;;;8.37;100.00
49835;BME280;35729;52.090;13.162;2023-04-16T06:54:47;101107.56;;;8.36;100.00
49835;BME280;35729;52.090;13.162;2023-04-16T06:57:15;101115.41;;;8.36;100.00
49835;BME280;35729;52.090;13.162;2023-04-16T06:59:44;101113.69;;;8.37;100.00
49835;BME280;35729;52.090;13.162;2023-04-16T07:02:15;101120.63;;;8.38;100.00
49835;BME280;35729;52.090;13.162;2023-04-16T07:04:43;101121.53;;;8.37;100.00
49835;BME280;35729;52.090;13.162;2023-04-16T07:07:11;101128.47;;;8.36;100.00
49835;BME280;35729;52.090;13.162;2023-04-16T07:09:40;101120.63;;;8.36;100.00
49835;BME280;35729;52.090;13.162;2023-04-16T07:12:08;101125.00;;;8.36;100.00
49835;BME280;35729;52.090;13.162;2023-04-16T07:14:37;101127.63;;;8.36;100.00
49835;BME280;35729;52.090;13.162;2023-04-16T07:17:06;101140.69;;;8.37;100.00
49835;BME280;35729;52.090;13.162;2023-04-16T07:19:37;101133.72;;;8.36;100.00
49835;BME280;35729;52.090;13.162;2023-04-16T07:22:06;101146.75;;;8.38;100.00
49835;BME280;35729;52.090;13.162;2023-04-16T07:24:34;101139.81;;;8.35;100.00
49835;BME280;35729;52.090;13.162;2023-04-16T07:27:03;101145.03;;;8.35;100.00
49835;BME280;35729;52.090;13.162;2023-04-16T07:29:31;101146.78;;;8.36;100.00
49835;BME280;35729;52.090;13.162;2023-04-16T07:32:00;101150.25;;;8.38;100.00
49835;BME280;35729;52.090;13.162;2023-04-16T07:34:28;101158.09;;;8.40;100.00
49835;BME280;35729;52.090;13.162;2023-04-16T07:36:59;101147.66;;;8.38;100.00
49835;BME280;35729;52.090;13.162;2023-04-16T07:39:27;101158.09;;;8.38;100.00
49835;BME280;35729;52.090;13.162;2023-04-16T07:41:56;101162.44;;;8.38;100.00
49835;BME280;35729;52.090;13.162;2023-04-16T07:44:24;101160.75;;;8.37;100.00
49835;BME280;35729;52.090;13.162;2023-04-16T07:46:53;101163.34;;;8.38;100.00
49835;BME280;35729;52.090;13.162;2023-04-16T07:49:21;101165.06;;;8.38;100.00
49835;BME280;35729;52.090;13.162;2023-04-16T07:51:50;101158.13;;;8.37;100.00
49835;BME280;35729;52.090;13.162;2023-04-16T07:54:21;101164.19;;;8.42;100.00
49835;BME280;35729;52.090;13.162;2023-04-16T07:56:49;101165.91;;;8.44;100.00
49835;BME280;35729;52.090;13.162;2023-04-16T07:59:17;101172.03;;;8.46;100.00
49835;BME280;35729;52.090;13.162;2023-04-16T08:01:46;101173.75;;;8.49;100.00
49835;BME280;35729;52.090;13.162;2023-04-16T08:04:14;101169.38;;;8.53;100.00
49835;BME280;35729;52.090;13.162;2023-04-16T08:06:48;101174.59;;;8.54;100.00
49835;BME280;35729;52.090;13.162;2023-04-16T08:09:18;101180.69;;;8.56;100.00
49835;BME280;35729;52.090;13.162;2023-04-16T08:11:49;101177.19;;;8.57;100.00
49835;BME280;35729;52.090;13.162;2023-04-16T08:14:17;101186.78;;;8.60;100.00
49835;BME280;35729;52.090;13.162;2023-04-16T08:16:46;101179.78;;;8.63;100.00
49835;BME280;35729;52.090;13.162;2023-04-16T08:19:14;101186.72;;;8.68;100.00
49835;BME280;35729;52.090;13.162;2023-04-16T08:21:43;101191.06;;;8.73;100.00
49835;BME280;35729;52.090;13.162;2023-04-16T08:24:11;101193.63;;;8.78;100.00
49835;BME280;35729;52.090;13.162;2023-04-16T08:26:40;101197.06;;;8.83;100.00
49835;BME280;35729;52.090;13.162;2023-04-16T08:29:11;101196.19;;;8.87;100.00
49835;BME280;35729;52.090;13.162;2023-04-16T08:31:39;101209.22;;;8.90;100.00
49835;BME280;35729;52.090;13.162;2023-04-16T08:34:09;101203.97;;;8.92;100.00
49835;BME280;35729;52.090;13.162;2023-04-16T08:36:38;101214.47;;;8.93;100.00
49835;BME280;35729;52.090;13.162;2023-04-16T08:39:07;101208.31;;;8.94;100.00
49835;BME280;35729;52.090;13.162;2023-04-16T08:41:37;101211.84;;;8.93;100.00
49835;BME280;35729;52.090;13.162;2023-04-16T08:44:13;101218.81;;;8.96;100.00
49835;BME280;35729;52.090;13.162;2023-04-16T08:46:44;101217.91;;;8.95;100.00
49835;BME280;35729;52.090;13.162;2023-04-16T08:49:15;101224.03;;;8.94;100.00
49835;BME280;35729;52.090;13.162;2023-04-16T08:51:49;101214.41;;;8.96;100.00
49835;BME280;35729;52.090;13.162;2023-04-16T08:54:30;101223.16;;;8.99;100.00
49835;BME280;35729;52.090;13.162;2023-04-16T08:57:04;101229.22;;;9.01;100.00
49835;BME280;35729;52.090;13.162;2023-04-16T08:59:36;101225.69;;;9.03;100.00
49835;BME280;35729;52.090;13.162;2023-04-16T09:02:05;101228.31;;;9.05;100.00
49835;BME280;35729;52.090;13.162;2023-04-16T09:04:35;101234.41;;;9.07;100.00
49835;BME280;35729;52.090;13.162;2023-04-16T09:07:06;101235.28;;;9.07;100.00
49835;BME280;35729;52.090;13.162;2023-04-16T09:09:36;101232.69;;;9.07;100.00
49835;BME280;35729;52.090;13.162;2023-04-16T09:12:06;101237.00;;;9.08;100.00
49835;BME280;35729;52.090;13.162;2023-04-16T09:14:46;101237.91;;;9.09;100.00
49835;BME280;35729;52.090;13.162;2023-04-16T09:17:16;101242.25;;;9.10;100.00
49835;BME280;35729;52.090;13.162;2023-04-16T09:19:45;101243.09;;;9.12;100.00
49835;BME280;35729;52.090;13.162;2023-04-16T09:22:13;101250.03;;;9.16;100.00
49835;BME280;35729;52.090;13.162;2023-04-16T09:24:42;101247.41;;;9.19;100.00
49835;BME280;35729;52.090;13.162;2023-04-16T09:27:11;101251.75;;;9.20;100.00
49835;BME280;35729;52.090;13.162;2023-04-16T09:29:43;101252.63;;;9.24;100.00
49835;BME280;35729;52.090;13.162;2023-04-16T09:32:12;101256.06;;;9.26;100.00
49835;BME280;35729;52.090;13.162;2023-04-16T09:34:54;101250.84;;;9.26;100.00
49835;BME280;35729;52.090;13.162;2023-04-16T09:37:23;101254.31;;;9.28;100.00
49835;BME280;35729;52.090;13.162;2023-04-16T09:39:55;101255.16;;;9.32;100.00
49835;BME280;35729;52.090;13.162;2023-04-16T09:42:26;101262.13;;;9.31;100.00
49835;BME280;35729;52.090;13.162;2023-04-16T09:44:58;101263.03;;;9.32;100.00
49835;BME280;35729;52.090;13.162;2023-04-16T09:47:37;101262.13;;;9.34;100.00
49835;BME280;35729;52.090;13.162;2023-04-16T09:50:07;101265.59;;;9.38;100.00
49835;BME280;35729;52.090;13.162;2023-04-16T09:52:36;101265.56;;;9.39;100.00
49835;BME280;35729;52.090;13.162;2023-04-16T09:55:06;101270.78;;;9.42;100.00
49835;BME280;35729;52.090;13.162;2023-04-16T09:57:36;101271.66;;;9.40;100.00
49835;BME280;35729;52.090;13.162;2023-04-16T10:00:09;101275.19;;;9.37;100.00
49835;BME280;35729;52.090;13.162;2023-04-16T10:02:39;101274.34;;;9.35;100.00
49835;BME280;35729;52.090;13.162;2023-04-16T10:05:08;101276.06;;;9.35;100.00
49835;BME280;35729;52.090;13.162;2023-04-16T10:07:37;101281.31;;;9.35;100.00
49835;BME280;35729;52.090;13.162;2023-04-16T10:10:06;101280.47;;;9.31;100.00
49835;BME280;35729;52.090;13.162;2023-04-16T10:12:35;101289.22;;;9.28;100.00
49835;BME280;35729;52.090;13.162;2023-04-16T10:15:07;101286.66;;;9.24;100.00
49835;BME280;35729;52.090;13.162;2023-04-16T10:17:36;101284.03;;;9.21;100.00
49835;BME280;35729;52.090;13.162;2023-04-16T10:20:06;101287.53;;;9.21;100.00
49835;BME280;35729;52.090;13.162;2023-04-16T10:22:35;101291.88;;;9.22;100.00
49835;BME280;35729;52.090;13.162;2023-04-16T10:25:05;101293.69;;;9.19;100.00
49835;BME280;35729;52.090;13.162;2023-04-16T10:27:35;101295.41;;;9.18;100.00
49835;BME280;35729;52.090;13.162;2023-04-16T10:30:09;101300.63;;;9.20;100.00
49835;BME280;35729;52.090;13.162;2023-04-16T10:32:38;101294.50;;;9.21;100.00
49835;BME280;35729;52.090;13.162;2023-04-16T10:35:08;101301.53;;;9.19;100.00
49835;BME280;35729;52.090;13.162;2023-04-16T10:37:36;101292.81;;;9.15;100.00
49835;BME280;35729;52.090;13.162;2023-04-16T10:40:24;101300.69;;;9.10;100.00
49835;BME280;35729;52.090;13.162;2023-04-16T10:42:58;101305.06;;;9.08;100.00
49835;BME280;35729;52.090;13.162;2023-04-16T10:45:36;101305.97;;;9.04;100.00
49835;BME280;35729;52.090;13.162;2023-04-16T10:48:05;101300.75;;;9.00;100.00
49835;BME280;35729;52.090;13.162;2023-04-16T10:50:35;101306.88;;;8.97;100.00
49835;BME280;35729;52.090;13.162;2023-04-16T10:53:17;101313.88;;;8.96;100.00
49835;BME280;35729;52.090;13.162;2023-04-16T10:55:56;101320.00;;;8.92;100.00
49835;BME280;35729;52.090;13.162;2023-04-16T10:58:28;101318.25;;;8.93;100.00
49835;BME280;35729;52.090;13.162;2023-04-16T11:01:05;101314.78;;;8.92;100.00
49835;BME280;35729;52.090;13.162;2023-04-16T11:03:34;101308.66;;;8.95;100.00
49835;BME280;35729;52.090;13.162;2023-04-16T11:06:10;101317.38;;;8.95;100.00
49835;BME280;35729;52.090;13.162;2023-04-16T11:08:41;101314.75;;;8.99;100.00
49835;BME280;35729;52.090;13.162;2023-04-16T11:11:11;101312.13;;;8.99;100.00
49835;BME280;35729;52.090;13.162;2023-04-16T11:13:42;101318.19;;;9.01;100.00
49835;BME280;35729;52.090;13.162;2023-04-16T11:16:15;101319.94;;;9.02;100.00
49835;BME280;35729;52.090;13.162;2023-04-16T11:18:44;101323.44;;;9.04;100.00
49835;BME280;35729;52.090;13.162;2023-04-16T11:21:13;101321.66;;;9.09;100.00
49835;BME280;35729;52.090;13.162;2023-04-16T11:23:48;101319.88;;;9.14;100.00
49835;BME280;35729;52.090;13.162;2023-04-16T11:26:24;101318.97;;;9.21;100.00
49835;BME280;35729;52.090;13.162;2023-04-16T11:28:53;101314.53;;;9.29;100.00
49835;BME280;35729;52.090;13.162;2023-04-16T11:31:25;101317.97;;;9.38;100.00
49835;BME280;35729;52.090;13.162;2023-04-16T11:33:55;101321.38;;;9.48;100.00
49835;BME280;35729;52.090;13.162;2023-04-16T11:36:25;101325.66;;;9.56;100.00
49835;BME280;35729;52.090;13.162;2023-04-16T11:39:00;101321.28;;;9.58;100.00
49835;BME280;35729;52.090;13.162;2023-04-16T11:41:30;101332.63;;;9.62;100.00
49835;BME280;35729;52.090;13.162;2023-04-16T11:43:58;101327.34;;;9.64;100.00
49835;BME280;35729;52.090;13.162;2023-04-16T11:46:39;101330.81;;;9.67;100.00
49835;BME280;35729;52.090;13.162;2023-04-16T11:49:07;101333.41;;;9.72;100.00
49835;BME280;35729;52.090;13.162;2023-04-16T11:51:39;101335.94;;;9.78;100.00
49835;BME280;35729;52.090;13.162;2023-04-16T11:54:08;101331.53;;;9.85;100.00
49835;BME280;35729;52.090;13.162;2023-04-16T11:56:37;101339.34;;;9.89;100.00
49835;BME280;35729;52.090;13.162;2023-04-16T11:59:07;101334.97;;;9.94;100.00
49835;BME280;35729;52.090;13.162;2023-04-16T12:01:39;101332.25;;;10.01;100.00
49835;BME280;35729;52.090;13.162;2023-04-16T12:04:12;101341.78;;;10.11;100.00
49835;BME280;35729;52.090;13.162;2023-04-16T12:07:07;101344.25;;;10.26;100.00
49835;BME280;35729;52.090;13.162;2023-04-16T12:09:36;101343.22;;;10.40;100.00
49835;BME280;35729;52.090;13.162;2023-04-16T12:12:06;101328.22;;;10.51;100.00
49835;BME280;35729;52.090;13.162;2023-04-16T12:14:52;101335.06;;;10.66;100.00
49835;BME280;35729;52.090;13.162;2023-04-16T12:17:24;101328.81;;;10.75;100.00
49835;BME280;35729;52.090;13.162;2023-04-16T12:19:56;101331.34;;;10.83;100.00
49835;BME280;35729;52.090;13.162;2023-04-16T12:22:26;101341.84;;;10.84;100.00
49835;BME280;35729;52.090;13.162;2023-04-16T12:24:57;101346.38;;;10.73;98.39
49835;BME280;35729;52.090;13.162;2023-04-16T12:27:26;101348.28;;;10.58;96.26
49835;BME280;35729;52.090;13.162;2023-04-16T12:30:08;101348.41;;;10.46;98.42
49835;BME280;35729;52.090;13.162;2023-04-16T12:32:40;101359.03;;;10.31;95.98
49835;BME280;35729;52.090;13.162;2023-04-16T12:35:09;101360.94;;;10.18;98.84
49835;BME280;35729;52.090;13.162;2023-04-16T12:37:38;101357.59;;;10.02;98.66
49835;BME280;35729;52.090;13.162;2023-04-16T12:40:07;101362.94;;;9.89;100.00
49835;BME280;35729;52.090;13.162;2023-04-16T12:42:36;101361.28;;;9.82;100.00
49835;BME280;35729;52.090;13.162;2023-04-16T12:45:05;101354.38;;;9.70;100.00
49835;BME280;35729;52.090;13.162;2023-04-16T12:47:34;101363.16;;;9.65;100.00
49835;BME280;35729;52.090;13.162;2023-04-16T12:50:06;101366.69;;;9.59;100.00
49835;BME280;35729;52.090;13.162;2023-04-16T12:52:34;101358.00;;;9.52;100.00
49835;BME280;35729;52.090;13.162;2023-04-16T12:55:03;101357.16;;;9.52;100.00